createdAt,value
2023-01-17T00:02:11.762Z,95426.97
2023-01-17T00:04:56.548Z,95426.91
2023-01-17T00:07:43.015Z,95406.84
2023-01-17T00:10:15.043Z,95411.19
2023-01-17T00:12:50.738Z,95408.34
2023-01-17T00:15:19.688Z,95394.94
2023-01-17T00:17:47.521Z,95399.31
2023-01-17T00:20:33.992Z,95401.44
2023-01-17T00:23:18.923Z,95392.72
2023-01-17T00:26:03.999Z,95381.38
2023-01-17T00:28:42.103Z,95338.63
2023-01-17T00:31:13.344Z,95347.41
2023-01-17T00:33:42.339Z,95367.03
2023-01-17T00:36:12.616Z,95360.47
2023-01-17T00:38:42.242Z,95359.22
2023-01-17T00:41:14.372Z,95348.34
2023-01-17T00:43:59.496Z,95333.28
2023-01-17T00:46:44.927Z,95333.28
2023-01-17T00:49:32.709Z,95296.34
2023-01-17T00:52:18.000Z,95288.72
2023-01-17T00:55:03.005Z,95282.16
2023-01-17T00:57:48.127Z,95271.66
2023-01-17T01:00:33.404Z,95275.31
2023-01-17T01:03:18.373Z,95256.31
2023-01-17T01:06:03.357Z,95259.44
2023-01-17T01:08:49.011Z,95256.63
2023-01-17T01:11:37.154Z,95237.44
2023-01-17T01:14:23.539Z,95257.44
2023-01-17T01:17:08.431Z,95260.81
2023-01-17T01:19:53.275Z,95259.00
2023-01-17T01:22:38.011Z,95257.03
2023-01-17T01:25:23.372Z,95248.69
2023-01-17T01:28:08.344Z,95244.41
2023-01-17T01:30:53.653Z,95253.06
2023-01-17T01:33:20.413Z,95236.22
2023-01-17T01:35:52.472Z,95248.94
2023-01-17T01:38:21.005Z,95238.13
2023-01-17T01:40:50.826Z,95226.13
2023-01-17T01:43:20.324Z,95213.50
2023-01-17T01:45:57.657Z,95193.50
2023-01-17T01:48:54.804Z,95198.97
2023-01-17T01:51:38.631Z,95187.34
2023-01-17T01:54:09.532Z,95178.66
2023-01-17T01:56:37.188Z,95163.13
2023-01-17T01:59:08.554Z,95161.31
2023-01-17T02:01:35.487Z,95143.97
2023-01-17T02:04:03.193Z,95139.94
2023-01-17T02:06:39.720Z,95125.84
2023-01-17T02:09:08.672Z,95120.81
2023-01-17T02:11:38.029Z,95133.53
2023-01-17T02:14:05.013Z,95121.41
2023-01-17T02:16:50.267Z,95117.56
2023-01-17T02:19:42.614Z,95110.91
2023-01-17T02:22:40.048Z,95114.94
2023-01-17T02:25:31.054Z,95117.97
2023-01-17T02:28:04.200Z,95119.16
2023-01-17T02:30:34.224Z,95126.38
2023-01-17T02:33:25.779Z,95117.53
2023-01-17T02:36:04.605Z,95116.13
2023-01-17T02:38:39.632Z,95103.84
2023-01-17T02:41:52.491Z,95113.94
2023-01-17T02:44:21.057Z,95100.59
2023-01-17T02:46:52.491Z,95106.63
2023-01-17T02:49:23.392Z,95071.94
2023-01-17T02:52:20.418Z,95091.91
2023-01-17T02:55:04.875Z,95069.31
2023-01-17T02:57:42.633Z,95087.72
2023-01-17T03:00:24.356Z,95084.06
2023-01-17T03:03:03.207Z,95078.03
2023-01-17T03:05:57.239Z,95058.66
2023-01-17T03:08:25.343Z,95057.84
2023-01-17T03:10:51.837Z,95076.19
2023-01-17T03:13:20.597Z,95049.75
2023-01-17T03:15:47.263Z,95041.94
2023-01-17T03:18:15.872Z,95056.63
2023-01-17T03:20:42.875Z,95050.22
2023-01-17T03:23:09.376Z,95025.59
2023-01-17T03:25:35.850Z,95043.38
2023-01-17T03:28:02.331Z,95022.19
2023-01-17T03:30:28.863Z,94983.88
2023-01-17T03:32:55.348Z,94977.81
2023-01-17T03:35:21.925Z,95008.50
2023-01-17T03:37:48.437Z,95011.13
2023-01-17T03:40:15.094Z,95001.22
2023-01-17T03:42:41.612Z,95002.03
2023-01-17T03:45:08.858Z,94988.69
2023-01-17T03:47:36.088Z,94993.78
2023-01-17T03:50:03.565Z,95000.00
2023-01-17T03:52:30.439Z,95009.91
2023-01-17T03:54:57.068Z,94990.94
2023-01-17T03:57:23.611Z,95006.06
2023-01-17T03:59:50.773Z,94986.50
2023-01-17T04:02:17.641Z,94987.13
2023-01-17T04:04:44.144Z,94983.06
2023-01-17T04:07:10.641Z,94958.88
2023-01-17T04:09:37.096Z,94968.13
2023-01-17T04:12:04.045Z,94987.28
2023-01-17T04:14:30.705Z,94980.25
2023-01-17T04:16:57.603Z,94972.38
2023-01-17T04:19:24.421Z,94943.34
2023-01-17T04:21:50.893Z,94949.81
2023-01-17T04:24:18.091Z,94954.03
2023-01-17T04:26:44.673Z,94934.47
2023-01-17T04:29:11.106Z,94950.81
2023-01-17T04:31:37.729Z,94934.28
2023-01-17T04:34:04.255Z,94942.97
2023-01-17T04:36:30.724Z,94932.66
2023-01-17T04:38:57.134Z,94927.22
2023-01-17T04:41:26.818Z,94915.13
2023-01-17T04:43:55.730Z,94943.56
2023-01-17T04:46:22.282Z,94926.41
2023-01-17T04:48:48.731Z,94919.16
2023-01-17T04:51:15.245Z,94926.03
2023-01-17T04:53:41.804Z,94919.56
2023-01-17T04:56:08.379Z,94912.53
2023-01-17T04:58:34.908Z,94897.59
2023-01-17T05:01:06.964Z,94910.50
2023-01-17T05:03:34.120Z,94921.16
2023-01-17T05:06:00.940Z,94900.63
2023-01-17T05:08:27.979Z,94877.63
2023-01-17T05:10:56.790Z,94906.44
2023-01-17T05:13:23.232Z,94871.97
2023-01-17T05:15:50.490Z,94894.94
2023-01-17T05:18:18.173Z,94864.72
2023-01-17T05:20:44.763Z,94875.44
2023-01-17T05:23:11.434Z,94840.19
2023-01-17T05:25:37.965Z,94835.16
2023-01-17T05:28:04.599Z,94818.66
2023-01-17T05:30:32.701Z,94854.06
2023-01-17T05:32:59.165Z,94809.78
2023-01-17T05:35:32.737Z,94792.47
2023-01-17T05:37:59.406Z,94808.38
2023-01-17T05:40:30.920Z,94810.41
2023-01-17T05:43:02.952Z,94778.19
2023-01-17T05:45:31.585Z,94798.91
2023-01-17T05:48:01.983Z,94772.94
2023-01-17T05:50:34.662Z,94782.59
2023-01-17T05:53:03.935Z,94779.59
2023-01-17T05:55:31.574Z,94779.81
2023-01-17T05:57:58.755Z,94771.31
2023-01-17T06:00:28.454Z,94778.19
2023-01-17T06:02:57.656Z,94768.31
2023-01-17T06:05:24.884Z,94734.69
2023-01-17T06:07:52.323Z,94755.44
2023-01-17T06:10:20.735Z,94759.47
2023-01-17T06:12:47.977Z,94731.47
2023-01-17T06:15:16.629Z,94758.03
2023-01-17T06:17:43.251Z,94709.94
2023-01-17T06:20:11.853Z,94759.66
2023-01-17T06:22:38.302Z,94704.09
2023-01-17T06:25:05.209Z,94730.06
2023-01-17T06:27:31.713Z,94722.03
2023-01-17T06:30:01.329Z,94740.94
2023-01-17T06:32:30.788Z,94728.25
2023-01-17T06:35:00.234Z,94744.56
2023-01-17T06:37:30.638Z,94738.72
2023-01-17T06:39:59.973Z,94751.00
2023-01-17T06:42:27.743Z,94705.53
2023-01-17T06:44:54.197Z,94734.09
2023-01-17T06:47:21.679Z,94731.88
2023-01-17T06:49:48.132Z,94726.44
2023-01-17T06:52:14.557Z,94695.06
2023-01-17T06:54:41.032Z,94684.78
2023-01-17T06:57:07.568Z,94676.13
2023-01-17T06:59:34.259Z,94684.78
2023-01-17T07:02:00.764Z,94669.88
2023-01-17T07:04:31.139Z,94690.97
2023-01-17T07:07:01.196Z,94651.53
2023-01-17T07:09:30.812Z,94660.31
2023-01-17T07:12:01.924Z,94650.25
2023-01-17T07:14:29.369Z,94662.31
2023-01-17T07:17:00.663Z,94671.22
2023-01-17T07:19:30.712Z,94638.03
2023-01-17T07:22:00.362Z,94659.34
2023-01-17T07:24:29.632Z,94646.84
2023-01-17T07:26:58.232Z,94603.66
2023-01-17T07:29:24.716Z,94642.22
2023-01-17T07:31:51.203Z,94642.81
2023-01-17T07:34:17.712Z,94653.84
2023-01-17T07:36:44.380Z,94648.81
2023-01-17T07:39:11.071Z,94629.94
2023-01-17T07:41:41.206Z,94629.53
2023-01-17T07:44:08.543Z,94643.38
2023-01-17T07:46:35.073Z,94626.69
2023-01-17T07:49:01.924Z,94628.66
2023-01-17T07:51:28.756Z,94644.94
2023-01-17T07:53:58.302Z,94651.16
2023-01-17T07:56:25.003Z,94631.47
2023-01-17T07:58:51.532Z,94648.97
2023-01-17T08:01:18.078Z,94630.28
2023-01-17T08:03:44.648Z,94643.97
2023-01-17T08:06:17.184Z,94654.16
2023-01-17T08:08:43.943Z,94639.06
2023-01-17T08:11:10.380Z,94631.03
2023-01-17T08:13:36.837Z,94652.34
2023-01-17T08:16:03.614Z,94650.16
2023-01-17T08:18:30.808Z,94654.56
2023-01-17T08:21:00.855Z,94635.06
2023-01-17T08:23:31.568Z,94644.06
2023-01-17T08:26:01.885Z,94642.41
2023-01-17T08:28:28.672Z,94646.69
2023-01-17T08:30:55.127Z,94645.84
2023-01-17T08:33:21.668Z,94635.59
2023-01-17T08:35:54.592Z,94659.22
2023-01-17T08:38:23.676Z,94666.50
2023-01-17T08:40:50.896Z,94659.66
2023-01-17T08:43:17.493Z,94644.97
2023-01-17T08:45:48.630Z,94661.28
2023-01-17T08:48:15.342Z,94673.28
2023-01-17T08:50:41.954Z,94675.50
2023-01-17T08:53:08.465Z,94656.84
2023-01-17T08:55:39.488Z,94678.44
2023-01-17T08:58:05.932Z,94704.44
2023-01-17T09:00:32.661Z,94698.41
2023-01-17T09:02:59.441Z,94688.75
2023-01-17T09:05:28.034Z,94685.97
2023-01-17T09:08:00.307Z,94688.97
2023-01-17T09:10:30.826Z,94693.00
2023-01-17T09:13:00.298Z,94712.72
2023-01-17T09:15:29.814Z,94729.03
2023-01-17T09:17:58.426Z,94717.53
2023-01-17T09:20:29.993Z,94724.63
2023-01-17T09:22:57.858Z,94703.06
2023-01-17T09:25:24.408Z,94724.22
2023-01-17T09:27:50.920Z,94720.94
2023-01-17T09:30:17.702Z,94737.25
2023-01-17T09:32:44.223Z,94747.94
2023-01-17T09:35:10.761Z,94768.09
2023-01-17T09:37:37.475Z,94753.56
2023-01-17T09:40:04.442Z,94750.34
2023-01-17T09:42:40.114Z,94778.50
2023-01-17T09:45:16.504Z,94781.34
2023-01-17T09:47:52.867Z,94794.47
2023-01-17T09:50:34.552Z,94797.06
2023-01-17T09:53:14.554Z,94809.75
2023-01-17T09:55:51.508Z,94798.88
2023-01-17T09:58:23.980Z,94804.50
2023-01-17T10:01:05.888Z,94799.06
2023-01-17T10:03:59.575Z,94828.38
2023-01-17T10:06:29.451Z,94824.13
2023-01-17T10:09:14.315Z,94837.63
2023-01-17T10:12:18.851Z,94843.84
2023-01-17T10:14:55.092Z,94846.06
2023-01-17T10:17:30.327Z,94856.97
2023-01-17T10:20:18.144Z,94869.44
2023-01-17T10:23:12.761Z,94873.88
2023-01-17T10:25:52.614Z,94877.28
2023-01-17T10:28:40.643Z,94870.56
2023-01-17T10:31:13.093Z,94880.22
2023-01-17T10:33:48.419Z,94878.34
2023-01-17T10:36:20.651Z,94895.63
2023-01-17T10:38:51.814Z,94896.22
2023-01-17T10:41:22.142Z,94891.03
2023-01-17T10:44:17.232Z,94884.41
2023-01-17T10:47:00.137Z,94883.94
2023-01-17T10:49:30.433Z,94872.34
2023-01-17T10:52:21.405Z,94892.63
2023-01-17T10:55:11.099Z,94872.97
2023-01-17T10:57:47.917Z,94820.97
2023-01-17T11:00:40.026Z,94885.53
2023-01-17T11:03:08.732Z,94869.28
2023-01-17T11:05:35.763Z,94855.44
2023-01-17T11:08:02.637Z,94878.03
2023-01-17T11:10:40.023Z,94876.72
2023-01-17T11:13:28.161Z,94865.41
2023-01-17T11:15:58.874Z,94896.66
2023-01-17T11:18:31.630Z,94880.47
2023-01-17T11:21:12.136Z,94881.59
2023-01-17T11:23:42.423Z,94882.41
2023-01-17T11:26:13.077Z,94885.28
2023-01-17T11:28:41.477Z,94884.59
2023-01-17T11:31:25.140Z,94877.16
2023-01-17T11:34:07.335Z,94877.44
2023-01-17T11:36:34.164Z,94891.72
2023-01-17T11:39:04.638Z,94897.09
2023-01-17T11:41:41.451Z,94900.25
2023-01-17T11:44:35.747Z,94894.00
2023-01-17T11:47:19.186Z,94891.31
2023-01-17T11:49:48.412Z,94899.94
2023-01-17T11:52:28.482Z,94894.06
2023-01-17T11:54:57.714Z,94874.94
2023-01-17T11:57:30.767Z,94884.25
2023-01-17T12:00:14.903Z,94868.66
2023-01-17T12:02:59.996Z,94894.31
2023-01-17T12:05:53.475Z,94893.41
2023-01-17T12:08:22.668Z,94889.66
2023-01-17T12:11:04.538Z,94892.34
2023-01-17T12:14:01.877Z,94881.66
2023-01-17T12:17:14.053Z,94887.56
2023-01-17T12:20:05.112Z,94872.25
2023-01-17T12:23:05.602Z,94879.69
2023-01-17T12:25:43.239Z,94866.06
2023-01-17T12:28:48.132Z,94877.72
2023-01-17T12:31:33.496Z,94867.72
2023-01-17T12:34:12.002Z,94874.81
2023-01-17T12:37:02.011Z,94855.47
2023-01-17T12:39:44.436Z,94860.47
2023-01-17T12:42:28.910Z,94851.09
2023-01-17T12:44:58.258Z,94850.63
2023-01-17T12:47:27.863Z,94818.72
2023-01-17T12:50:19.034Z,94846.69
2023-01-17T12:52:58.448Z,94851.00
2023-01-17T12:55:48.522Z,94843.03
2023-01-17T12:58:21.096Z,94829.00
2023-01-17T13:00:54.890Z,94815.13
2023-01-17T13:03:45.187Z,94811.38
2023-01-17T13:06:22.031Z,94825.78
2023-01-17T13:08:53.084Z,94808.25
2023-01-17T13:11:45.953Z,94826.28
2023-01-17T13:14:12.469Z,94832.81
2023-01-17T13:16:48.783Z,94837.69
2023-01-17T13:19:33.711Z,94836.91
2023-01-17T13:22:02.397Z,94840.38
2023-01-17T13:24:43.482Z,94845.41
2023-01-17T13:27:09.862Z,94851.56
2023-01-17T13:29:54.303Z,94827.56
2023-01-17T13:32:53.287Z,94835.97
2023-01-17T13:35:39.943Z,94843.38
2023-01-17T13:38:28.676Z,94831.69
2023-01-17T13:41:02.750Z,94829.84
2023-01-17T13:43:39.413Z,94831.03
2023-01-17T13:46:06.770Z,94828.28
2023-01-17T13:48:34.549Z,94843.56
2023-01-17T13:51:03.677Z,94837.75
2023-01-17T13:53:36.777Z,94854.50
2023-01-17T13:56:27.775Z,94844.50
2023-01-17T13:59:02.805Z,94845.56
2023-01-17T14:01:34.617Z,94853.19
2023-01-17T14:04:08.627Z,94861.41
2023-01-17T14:06:44.802Z,94847.25
2023-01-17T14:09:14.369Z,94857.94
2023-01-17T14:12:09.251Z,94855.06
2023-01-17T14:14:44.455Z,94854.56
2023-01-17T14:17:25.377Z,94855.69
2023-01-17T14:19:53.911Z,94836.50
2023-01-17T14:22:20.354Z,94850.38
2023-01-17T14:25:14.947Z,94836.09
2023-01-17T14:27:50.054Z,94846.06
2023-01-17T14:30:24.705Z,94862.31
2023-01-17T14:33:08.692Z,94859.56
2023-01-17T14:35:39.377Z,94853.19
2023-01-17T14:38:40.901Z,94857.25
2023-01-17T14:41:13.351Z,94850.44
2023-01-17T14:43:42.781Z,94856.44
2023-01-17T14:46:17.275Z,94845.22
2023-01-17T14:48:43.800Z,94866.38
2023-01-17T14:51:18.598Z,94870.56
2023-01-17T14:54:17.303Z,94877.81
2023-01-17T14:56:43.873Z,94870.75
2023-01-17T14:59:17.128Z,94872.56
2023-01-17T15:02:07.154Z,94869.81
2023-01-17T15:04:39.088Z,94885.75
2023-01-17T15:07:06.100Z,94847.03
2023-01-17T15:09:37.481Z,94871.81
2023-01-17T15:12:05.101Z,94886.31
2023-01-17T15:14:38.377Z,94872.56
2023-01-17T15:17:16.201Z,94865.41
2023-01-17T15:19:44.623Z,94815.25
2023-01-17T15:22:12.574Z,94870.63
2023-01-17T15:24:44.655Z,94874.19
2023-01-17T15:27:16.857Z,94852.66
2023-01-17T15:29:45.464Z,94861.38
2023-01-17T15:32:32.224Z,94879.69
2023-01-17T15:35:04.718Z,94880.50
2023-01-17T15:37:39.186Z,94869.91
2023-01-17T15:40:19.384Z,94889.63
2023-01-17T15:42:56.671Z,94881.19
2023-01-17T15:45:28.029Z,94895.34
2023-01-17T15:47:54.835Z,94839.25
2023-01-17T15:50:23.346Z,94909.09
2023-01-17T15:52:54.304Z,94920.38
2023-01-17T15:55:30.869Z,94895.44
2023-01-17T15:57:57.723Z,94915.66
2023-01-17T16:00:37.815Z,94924.34
2023-01-17T16:03:19.725Z,94916.72
2023-01-17T16:05:47.199Z,94922.78
2023-01-17T16:08:16.307Z,94937.72
2023-01-17T16:10:43.599Z,94929.06
2023-01-17T16:13:12.820Z,94932.28
2023-01-17T16:15:41.293Z,94926.31
2023-01-17T16:18:18.967Z,94929.06
2023-01-17T16:21:19.392Z,94921.84
2023-01-17T16:23:46.868Z,94875.72
2023-01-17T16:26:13.504Z,94896.31
2023-01-17T16:28:40.042Z,94904.34
2023-01-17T16:31:06.607Z,94915.06
2023-01-17T16:33:33.374Z,94888.69
2023-01-17T16:36:03.265Z,94893.94
2023-01-17T16:38:32.204Z,94913.47
2023-01-17T16:41:01.016Z,94887.31
2023-01-17T16:43:27.566Z,94909.28
2023-01-17T16:45:55.559Z,94907.28
2023-01-17T16:48:22.710Z,94860.94
2023-01-17T16:50:52.196Z,94903.63
2023-01-17T16:53:27.825Z,94900.66
2023-01-17T16:55:57.188Z,94913.16
2023-01-17T16:58:26.625Z,94905.88
2023-01-17T17:00:57.918Z,94909.91
2023-01-17T17:03:57.197Z,94940.75
2023-01-17T17:06:36.896Z,94949.59
2023-01-17T17:09:06.493Z,94970.78
2023-01-17T17:11:32.935Z,94981.25
2023-01-17T17:14:00.979Z,94961.50
2023-01-17T17:16:35.609Z,94986.69
2023-01-17T17:19:05.578Z,94995.75
2023-01-17T17:21:33.907Z,94999.81
2023-01-17T17:24:02.109Z,94998.78
2023-01-17T17:26:35.543Z,95009.66
2023-01-17T17:29:03.291Z,95022.00
2023-01-17T17:31:31.788Z,95011.50
2023-01-17T17:34:03.304Z,95036.69
2023-01-17T17:36:31.650Z,95006.66
2023-01-17T17:38:58.386Z,95037.50
2023-01-17T17:41:27.767Z,95041.94
2023-01-17T17:43:55.379Z,95048.59
2023-01-17T17:46:23.788Z,95037.69
2023-01-17T17:48:50.383Z,95067.53
2023-01-17T17:51:22.803Z,95082.84
2023-01-17T17:53:52.011Z,95076.16
2023-01-17T17:56:20.461Z,95079.13
2023-01-17T17:58:47.792Z,95075.72
2023-01-17T18:01:14.611Z,95038.16
2023-01-17T18:03:41.101Z,95081.91
2023-01-17T18:06:10.201Z,95086.53
2023-01-17T18:08:37.651Z,95084.88
2023-01-17T18:11:11.340Z,95094.34
2023-01-17T18:13:38.910Z,95083.81
2023-01-17T18:16:13.690Z,95110.44
2023-01-17T18:18:43.793Z,95111.59
2023-01-17T18:21:17.880Z,95125.31
2023-01-17T18:23:45.120Z,95086.13
2023-01-17T18:26:17.838Z,95121.31
2023-01-17T18:28:44.819Z,95124.09
2023-01-17T18:31:11.544Z,95091.53
2023-01-17T18:33:39.651Z,95141.47
2023-01-17T18:36:08.007Z,95111.38
2023-01-17T18:38:39.480Z,95137.47
2023-01-17T18:41:14.319Z,95131.78
2023-01-17T18:43:41.543Z,95134.06
2023-01-17T18:46:09.752Z,95127.06
2023-01-17T18:48:36.748Z,95113.88
2023-01-17T18:51:07.511Z,95080.53
2023-01-17T18:53:35.503Z,95132.63
2023-01-17T18:56:06.384Z,95145.84
2023-01-17T18:58:36.599Z,95105.28
2023-01-17T19:01:15.565Z,95156.88
2023-01-17T19:03:44.892Z,95154.47
2023-01-17T19:06:17.933Z,95143.34
2023-01-17T19:08:45.156Z,95158.69
2023-01-17T19:11:12.783Z,95135.41
2023-01-17T19:13:41.991Z,95174.19
2023-01-17T19:16:13.932Z,95156.63
2023-01-17T19:18:41.061Z,95130.28
2023-01-17T19:21:10.839Z,95174.13
2023-01-17T19:23:38.127Z,95130.88
2023-01-17T19:26:09.112Z,95186.78
2023-01-17T19:28:41.090Z,95133.97
2023-01-17T19:31:11.666Z,95157.44
2023-01-17T19:33:40.616Z,95191.41
2023-01-17T19:36:16.862Z,95156.19
2023-01-17T19:38:52.253Z,95181.78
2023-01-17T19:41:28.553Z,95190.66
2023-01-17T19:43:57.023Z,95195.50
2023-01-17T19:46:26.103Z,95159.72
2023-01-17T19:48:53.217Z,95185.22
2023-01-17T19:51:33.803Z,95194.31
2023-01-17T19:54:02.432Z,95196.09
2023-01-17T19:56:29.423Z,95189.25
2023-01-17T19:59:02.986Z,95145.88
2023-01-17T20:01:35.697Z,95185.09
2023-01-17T20:04:05.352Z,95175.19
2023-01-17T20:06:35.980Z,95200.97
2023-01-17T20:09:06.605Z,95178.50
2023-01-17T20:11:33.718Z,95169.38
2023-01-17T20:14:03.206Z,95195.81
2023-01-17T20:16:33.063Z,95209.69
2023-01-17T20:19:00.191Z,95196.41
2023-01-17T20:21:27.810Z,95212.06
2023-01-17T20:23:56.171Z,95217.09
2023-01-17T20:26:25.508Z,95210.25
2023-01-17T20:28:53.310Z,95186.53
2023-01-17T20:31:25.171Z,95201.75
2023-01-17T20:33:54.128Z,95205.34
2023-01-17T20:36:23.057Z,95213.13
2023-01-17T20:38:49.772Z,95200.88
2023-01-17T20:41:17.797Z,95208.94
2023-01-17T20:43:47.603Z,95179.63
2023-01-17T20:46:14.899Z,95186.59
2023-01-17T20:48:49.465Z,95209.28
2023-01-17T20:51:17.322Z,95208.34
2023-01-17T20:53:45.492Z,95206.56
2023-01-17T20:56:14.542Z,95205.75
2023-01-17T20:58:41.990Z,95199.88
2023-01-17T21:01:13.495Z,95194.19
2023-01-17T21:03:40.296Z,95197.47
2023-01-17T21:06:11.426Z,95199.69
2023-01-17T21:08:40.187Z,95205.53
2023-01-17T21:11:08.377Z,95196.53
2023-01-17T21:13:35.332Z,95193.31
2023-01-17T21:16:05.919Z,95185.22
2023-01-17T21:18:36.312Z,95194.44
2023-01-17T21:21:21.661Z,95198.81
2023-01-17T21:23:49.375Z,95200.81
2023-01-17T21:26:17.414Z,95183.31
2023-01-17T21:28:45.998Z,95195.81
2023-01-17T21:31:26.219Z,95194.25
2023-01-17T21:34:10.902Z,95197.97
2023-01-17T21:36:40.061Z,95192.16
2023-01-17T21:39:11.118Z,95192.41
2023-01-17T21:41:39.619Z,95180.19
2023-01-17T21:44:36.456Z,95182.00
2023-01-17T21:47:05.942Z,95190.69
2023-01-17T21:49:32.815Z,95197.38
2023-01-17T21:52:00.104Z,95184.25
2023-01-17T21:54:46.774Z,95179.22
2023-01-17T21:57:37.855Z,95194.81
2023-01-17T22:00:14.475Z,95194.28
2023-01-17T22:02:41.494Z,95182.19
2023-01-17T22:05:09.270Z,95198.81
2023-01-17T22:08:12.114Z,95200.66
2023-01-17T22:10:45.304Z,95169.50
2023-01-17T22:13:17.097Z,95207.31
2023-01-17T22:15:44.095Z,95198.81
2023-01-17T22:18:13.116Z,95214.19
2023-01-17T22:20:41.342Z,95206.69
2023-01-17T22:23:09.450Z,95205.66
2023-01-17T22:25:42.117Z,95206.44
2023-01-17T22:28:08.566Z,95222.09
2023-01-17T22:30:38.301Z,95203.31
2023-01-17T22:33:07.566Z,95209.69
2023-01-17T22:35:38.592Z,95217.69
2023-01-17T22:38:08.432Z,95200.28
2023-01-17T22:40:38.355Z,95208.19
2023-01-17T22:43:07.757Z,95203.56
2023-01-17T22:45:37.364Z,95219.72
2023-01-17T22:48:12.828Z,95211.13
2023-01-17T22:50:39.579Z,95210.59
2023-01-17T22:53:10.478Z,95187.78
2023-01-17T22:55:37.356Z,95208.03
2023-01-17T22:58:06.671Z,95204.16
2023-01-17T23:00:33.413Z,95224.53
2023-01-17T23:03:00.508Z,95199.47
2023-01-17T23:05:27.213Z,95209.91
2023-01-17T23:07:53.733Z,95218.53
2023-01-17T23:10:38.897Z,95201.31
2023-01-17T23:13:09.903Z,95215.50
2023-01-17T23:15:58.426Z,95221.63
2023-01-17T23:18:44.031Z,95201.31
2023-01-17T23:21:10.473Z,95214.91
2023-01-17T23:23:38.908Z,95229.47
2023-01-17T23:26:09.677Z,95204.44
2023-01-17T23:28:38.830Z,95226.72
2023-01-17T23:31:08.751Z,95216.00
2023-01-17T23:33:35.273Z,95227.16
2023-01-17T23:36:01.861Z,95199.91
2023-01-17T23:38:33.647Z,95222.31
2023-01-17T23:41:26.995Z,95207.75
2023-01-17T23:43:55.950Z,95202.97
2023-01-17T23:46:24.533Z,95210.81
2023-01-17T23:48:51.296Z,95212.44
2023-01-17T23:51:17.783Z,95208.56
2023-01-17T23:53:44.309Z,95206.63
2023-01-17T23:56:18.094Z,95196.59
2023-01-17T23:58:44.857Z,95204.84
